createdAt,value
2023-01-19T00:01:30.090Z,22.05
2023-01-19T00:03:58.093Z,25.38
2023-01-19T00:06:25.892Z,20.00
2023-01-19T00:08:53.574Z,18.80
2023-01-19T00:11:21.202Z,18.20
2023-01-19T00:13:51.977Z,17.00
2023-01-19T00:16:21.678Z,16.38
2023-01-19T00:18:50.620Z,17.73
2023-01-19T00:21:18.940Z,15.65
2023-01-19T00:23:51.109Z,18.45
2023-01-19T00:26:19.365Z,16.38
2023-01-19T00:28:47.219Z,17.73
2023-01-19T00:31:14.908Z,14.98
2023-01-19T00:33:42.628Z,15.88
2023-01-19T00:36:10.629Z,15.82
2023-01-19T00:38:39.057Z,16.90
2023-01-19T00:41:06.933Z,19.80
2023-01-19T00:43:34.609Z,19.20
2023-01-19T00:46:02.295Z,16.58
2023-01-19T00:48:30.765Z,17.05
2023-01-19T00:50:59.998Z,16.77
2023-01-19T00:53:32.382Z,13.68
2023-01-19T00:56:00.334Z,16.83
2023-01-19T00:58:28.139Z,15.85
2023-01-19T01:00:57.783Z,20.05
2023-01-19T01:03:27.912Z,18.10
2023-01-19T01:05:56.278Z,16.13
2023-01-19T01:08:24.230Z,14.77
2023-01-19T01:10:52.039Z,13.32
2023-01-19T01:13:20.800Z,17.80
2023-01-19T01:15:52.221Z,11.75
2023-01-19T01:18:20.172Z,14.10
2023-01-19T01:20:47.835Z,13.45
2023-01-19T01:23:15.499Z,16.85
2023-01-19T01:25:43.395Z,12.52
2023-01-19T01:28:11.032Z,12.57
2023-01-19T01:30:40.905Z,14.55
2023-01-19T01:33:09.047Z,11.57
2023-01-19T01:35:36.625Z,14.68
2023-01-19T01:38:04.408Z,12.13
2023-01-19T01:40:32.128Z,12.93
2023-01-19T01:43:00.151Z,14.05
2023-01-19T01:45:32.991Z,12.35
2023-01-19T01:48:04.200Z,16.77
2023-01-19T01:50:33.455Z,12.70
2023-01-19T01:53:07.651Z,13.90
2023-01-19T01:55:38.663Z,11.40
2023-01-19T01:58:07.243Z,13.98
2023-01-19T02:00:57.998Z,12.85
2023-01-19T02:03:26.316Z,13.25
2023-01-19T02:05:57.380Z,9.20
2023-01-19T02:09:02.397Z,11.68
2023-01-19T02:11:49.644Z,12.52
2023-01-19T02:14:18.911Z,12.82
2023-01-19T02:16:46.743Z,11.73
2023-01-19T02:19:16.892Z,11.77
2023-01-19T02:21:53.277Z,10.68
2023-01-19T02:24:21.256Z,14.27
2023-01-19T02:26:50.239Z,15.30
2023-01-19T02:29:22.080Z,12.70
2023-01-19T02:34:18.534Z,13.00
2023-01-19T02:36:46.360Z,10.60
2023-01-19T02:39:16.052Z,11.38
2023-01-19T02:41:48.472Z,11.48
2023-01-19T02:44:16.309Z,10.43
2023-01-19T02:46:44.401Z,10.60
2023-01-19T02:49:12.518Z,10.93
2023-01-19T02:51:40.272Z,9.18
2023-01-19T02:54:08.407Z,11.02
2023-01-19T02:56:51.360Z,9.52
2023-01-19T02:59:19.081Z,9.48
2023-01-19T03:01:49.743Z,12.02
2023-01-19T03:04:36.750Z,10.00
2023-01-19T03:07:09.315Z,13.38
2023-01-19T03:09:38.415Z,10.95
2023-01-19T03:12:26.661Z,10.70
2023-01-19T03:14:57.483Z,8.50
2023-01-19T03:17:28.011Z,14.93
2023-01-19T03:19:56.151Z,12.88
2023-01-19T03:22:26.116Z,10.98
2023-01-19T03:24:55.339Z,10.50
2023-01-19T03:27:31.414Z,9.75
2023-01-19T03:30:07.772Z,12.63
2023-01-19T03:32:42.812Z,10.93
2023-01-19T03:35:14.211Z,12.57
2023-01-19T03:40:11.218Z,12.27
2023-01-19T03:42:43.232Z,12.25
2023-01-19T03:45:12.841Z,15.13
2023-01-19T03:47:41.979Z,16.60
2023-01-19T03:50:13.194Z,12.10
2023-01-19T03:52:41.810Z,12.57
2023-01-19T03:55:10.391Z,15.05
2023-01-19T03:57:38.528Z,13.55
2023-01-19T04:00:06.745Z,12.57
2023-01-19T04:02:41.606Z,13.52
2023-01-19T04:05:11.059Z,15.32
2023-01-19T04:07:40.361Z,18.13
2023-01-19T04:10:12.892Z,14.18
2023-01-19T04:12:41.312Z,14.05
2023-01-19T04:15:10.361Z,12.40
2023-01-19T04:17:39.387Z,17.42
2023-01-19T04:20:07.888Z,15.65
2023-01-19T04:22:35.910Z,13.88
2023-01-19T04:25:04.115Z,15.88
2023-01-19T04:27:31.972Z,14.95
2023-01-19T04:30:00.529Z,18.80
2023-01-19T04:32:28.388Z,12.48
2023-01-19T04:34:56.024Z,14.65
2023-01-19T04:37:23.971Z,16.83
2023-01-19T04:39:51.731Z,12.88
2023-01-19T04:42:19.745Z,14.10
2023-01-19T04:44:49.164Z,15.18
2023-01-19T04:47:17.678Z,14.90
2023-01-19T04:49:45.321Z,15.68
2023-01-19T04:52:13.422Z,14.98
2023-01-19T04:54:41.424Z,13.48
2023-01-19T04:57:09.491Z,12.68
2023-01-19T04:59:37.629Z,15.23
2023-01-19T05:02:05.489Z,15.13
2023-01-19T05:04:33.094Z,13.80
2023-01-19T05:07:00.660Z,15.55
2023-01-19T05:09:29.398Z,16.35
2023-01-19T05:11:56.986Z,13.13
2023-01-19T05:14:24.529Z,16.15
2023-01-19T05:16:52.078Z,15.00
2023-01-19T05:19:19.720Z,14.88
2023-01-19T05:21:47.908Z,17.60
2023-01-19T05:24:15.585Z,15.60
2023-01-19T05:26:43.422Z,18.38
2023-01-19T05:29:10.966Z,18.25
2023-01-19T05:31:38.595Z,16.20
2023-01-19T05:34:06.418Z,15.85
2023-01-19T05:36:34.074Z,17.38
2023-01-19T05:39:01.642Z,16.23
2023-01-19T05:41:29.213Z,18.13
2023-01-19T05:43:57.241Z,17.23
2023-01-19T05:46:25.214Z,18.50
2023-01-19T05:48:52.831Z,23.05
2023-01-19T05:51:20.425Z,21.27
2023-01-19T05:53:47.979Z,17.33
2023-01-19T05:56:15.521Z,19.98
2023-01-19T05:58:43.116Z,23.95
2023-01-19T06:01:11.121Z,20.30
2023-01-19T06:03:39.798Z,22.35
2023-01-19T06:06:07.570Z,20.30
2023-01-19T06:08:35.163Z,17.85
2023-01-19T06:11:02.749Z,18.80
2023-01-19T06:13:30.452Z,21.30
2023-01-19T06:15:59.350Z,19.27
2023-01-19T06:18:27.055Z,21.40
2023-01-19T06:20:58.629Z,18.73
2023-01-19T06:25:53.692Z,19.35
2023-01-19T06:28:21.435Z,23.55
2023-01-19T06:30:52.600Z,23.38
2023-01-19T06:33:20.681Z,22.95
2023-01-19T06:35:49.675Z,22.42
2023-01-19T06:38:18.516Z,22.10
2023-01-19T06:40:46.752Z,24.23
2023-01-19T06:43:14.357Z,22.15
2023-01-19T06:45:43.707Z,19.88
2023-01-19T06:48:12.147Z,19.65
2023-01-19T06:50:40.698Z,19.00
2023-01-19T06:53:08.374Z,22.55
2023-01-19T06:55:36.387Z,22.83
2023-01-19T06:58:03.988Z,20.25
2023-01-19T07:00:31.686Z,19.15
2023-01-19T07:02:59.625Z,20.20
2023-01-19T07:05:27.606Z,19.65
2023-01-19T07:07:55.704Z,18.92
2023-01-19T07:10:23.662Z,17.85
2023-01-19T07:12:51.347Z,20.08
2023-01-19T07:15:19.722Z,18.15
2023-01-19T07:17:47.339Z,18.40
2023-01-19T07:20:15.057Z,20.08
2023-01-19T07:22:49.328Z,18.80
2023-01-19T07:25:16.908Z,19.20
2023-01-19T07:27:45.009Z,15.52
2023-01-19T07:30:13.496Z,18.65
2023-01-19T07:32:42.532Z,15.55
2023-01-19T07:35:10.680Z,20.40
2023-01-19T07:37:38.342Z,19.83
2023-01-19T07:40:06.255Z,16.02
2023-01-19T07:42:33.862Z,19.25
2023-01-19T07:45:01.403Z,15.15
2023-01-19T07:47:28.991Z,19.45
2023-01-19T07:49:56.551Z,15.93
2023-01-19T07:52:24.220Z,16.23
2023-01-19T07:54:51.749Z,15.98
2023-01-19T07:57:20.167Z,17.17
2023-01-19T07:59:47.738Z,20.27
2023-01-19T08:02:16.442Z,18.30
2023-01-19T08:04:44.974Z,20.10
2023-01-19T08:07:12.922Z,18.20
2023-01-19T08:09:40.584Z,17.58
2023-01-19T08:12:08.151Z,16.95
2023-01-19T08:14:35.820Z,20.13
2023-01-19T08:17:03.771Z,15.75
2023-01-19T08:19:31.402Z,18.30
2023-01-19T08:21:59.979Z,19.70
2023-01-19T08:24:29.032Z,17.85
2023-01-19T08:27:00.001Z,17.50
2023-01-19T08:29:30.579Z,18.77
2023-01-19T08:32:00.075Z,17.15
2023-01-19T08:34:27.812Z,16.83
2023-01-19T08:36:55.437Z,19.35
2023-01-19T08:39:24.422Z,17.23
2023-01-19T08:41:52.577Z,15.85
2023-01-19T08:44:20.312Z,14.30
2023-01-19T08:46:47.871Z,14.90
2023-01-19T08:49:15.868Z,16.52
2023-01-19T08:51:46.836Z,16.73
2023-01-19T08:54:17.075Z,17.85
2023-01-19T08:56:45.915Z,14.27
2023-01-19T08:59:14.271Z,13.68
2023-01-19T09:01:42.163Z,15.05
2023-01-19T09:04:09.889Z,16.33
2023-01-19T09:06:37.489Z,12.90
2023-01-19T09:09:05.210Z,16.40
2023-01-19T09:11:33.213Z,16.98
2023-01-19T09:14:00.790Z,17.20
2023-01-19T09:16:29.252Z,17.20
2023-01-19T09:18:57.003Z,16.33
2023-01-19T09:21:24.551Z,17.50
2023-01-19T09:23:52.215Z,15.25
2023-01-19T09:26:19.860Z,14.05
2023-01-19T09:28:47.441Z,14.80
2023-01-19T09:31:15.391Z,15.82
2023-01-19T09:33:43.029Z,14.57
2023-01-19T09:36:10.787Z,14.23
2023-01-19T09:38:38.530Z,14.48
2023-01-19T09:41:14.858Z,14.98
2023-01-19T09:43:47.312Z,14.63
2023-01-19T09:46:20.996Z,13.68
2023-01-19T09:48:57.629Z,13.68
2023-01-19T09:51:26.769Z,12.77
2023-01-19T09:54:04.049Z,14.02
2023-01-19T09:56:32.079Z,15.02
2023-01-19T09:59:00.516Z,13.73
2023-01-19T10:01:36.971Z,14.40
2023-01-19T10:04:16.820Z,13.80
2023-01-19T10:06:44.854Z,14.15
2023-01-19T10:09:25.497Z,11.23
2023-01-19T10:11:58.204Z,14.25
2023-01-19T10:14:37.256Z,11.50
2023-01-19T10:17:10.312Z,13.05
2023-01-19T10:19:38.779Z,12.68
2023-01-19T10:22:15.980Z,13.27
2023-01-19T10:24:43.763Z,14.18
2023-01-19T10:27:17.741Z,11.57
2023-01-19T10:29:45.730Z,12.32
2023-01-19T10:32:21.760Z,11.00
2023-01-19T10:34:50.415Z,13.68
2023-01-19T10:37:18.028Z,13.55
2023-01-19T10:39:53.716Z,9.75
2023-01-19T10:42:21.490Z,11.73
2023-01-19T10:44:50.116Z,11.05
2023-01-19T10:47:18.715Z,10.65
2023-01-19T10:49:47.055Z,11.05
2023-01-19T10:52:20.491Z,9.23
2023-01-19T10:54:48.580Z,12.23
2023-01-19T10:57:26.524Z,12.80
2023-01-19T10:59:54.163Z,9.88
2023-01-19T11:02:23.622Z,10.43
2023-01-19T11:04:52.993Z,8.93
2023-01-19T11:07:20.680Z,10.27
2023-01-19T11:09:48.536Z,11.52
2023-01-19T11:12:23.349Z,10.10
2023-01-19T11:14:52.268Z,8.82
2023-01-19T11:17:25.215Z,9.35
2023-01-19T11:19:57.761Z,7.93
2023-01-19T11:22:34.650Z,7.07
2023-01-19T11:25:03.667Z,7.03
2023-01-19T11:27:32.799Z,7.40
2023-01-19T11:30:09.971Z,6.50
2023-01-19T11:32:37.581Z,7.88
2023-01-19T11:35:25.588Z,10.50
2023-01-19T11:38:05.461Z,8.07
2023-01-19T11:40:34.907Z,8.20
2023-01-19T11:43:02.982Z,7.82
2023-01-19T11:45:31.345Z,8.63
2023-01-19T11:48:02.652Z,6.50
2023-01-19T11:50:30.396Z,8.57
2023-01-19T11:53:11.688Z,5.88
2023-01-19T11:56:00.248Z,7.85
2023-01-19T11:58:28.192Z,7.15
2023-01-19T12:00:58.582Z,8.35
2023-01-19T12:03:32.275Z,6.32
2023-01-19T12:06:02.245Z,6.60
2023-01-19T12:08:37.692Z,7.35
2023-01-19T12:11:06.411Z,7.40
2023-01-19T12:13:34.263Z,7.15
2023-01-19T12:16:29.357Z,7.65
2023-01-19T12:18:59.245Z,6.78
2023-01-19T12:21:26.812Z,5.63
2023-01-19T12:23:58.452Z,6.32
2023-01-19T12:26:28.871Z,6.60
2023-01-19T12:29:00.247Z,7.50
2023-01-19T12:31:28.451Z,7.25
2023-01-19T12:34:17.164Z,6.50
2023-01-19T12:36:44.787Z,7.97
2023-01-19T12:39:18.638Z,6.57
2023-01-19T12:41:47.115Z,8.52
2023-01-19T12:44:16.426Z,7.28
2023-01-19T12:46:49.141Z,8.55
2023-01-19T12:49:41.142Z,9.88
2023-01-19T12:52:28.123Z,7.90
2023-01-19T12:55:01.601Z,7.47
2023-01-19T12:57:35.129Z,6.63
2023-01-19T13:00:05.616Z,5.90
2023-01-19T13:02:43.224Z,6.00
2023-01-19T13:05:12.735Z,11.60
2023-01-19T13:07:59.011Z,8.70
2023-01-19T13:10:45.566Z,7.18
2023-01-19T13:13:31.872Z,7.55
2023-01-19T13:16:19.676Z,9.30
2023-01-19T13:19:02.235Z,8.02
2023-01-19T13:21:31.882Z,8.27
2023-01-19T13:24:00.961Z,8.30
2023-01-19T13:26:29.791Z,7.93
2023-01-19T13:29:12.944Z,9.27
2023-01-19T13:31:42.348Z,8.93
2023-01-19T13:34:15.009Z,8.32
2023-01-19T13:36:46.802Z,9.30
2023-01-19T13:41:45.435Z,7.07
2023-01-19T13:44:23.679Z,8.05
2023-01-19T13:46:52.473Z,6.18
2023-01-19T13:49:23.948Z,5.43
2023-01-19T13:52:10.158Z,5.20
2023-01-19T13:54:37.891Z,4.05
2023-01-19T13:57:05.475Z,6.13
2023-01-19T13:59:33.318Z,4.47
2023-01-19T14:02:05.738Z,6.60
2023-01-19T14:04:34.379Z,7.65
2023-01-19T14:07:04.191Z,4.80
2023-01-19T14:09:31.864Z,7.45
2023-01-19T14:12:17.525Z,5.82
2023-01-19T14:14:48.146Z,5.03
2023-01-19T14:17:21.511Z,4.40
2023-01-19T14:19:50.255Z,5.53
2023-01-19T14:22:17.956Z,5.97
2023-01-19T14:24:45.524Z,4.97
2023-01-19T14:27:39.568Z,5.47
2023-01-19T14:30:21.573Z,6.40
2023-01-19T14:32:49.121Z,9.27
2023-01-19T14:35:24.433Z,5.28
2023-01-19T14:37:52.693Z,4.63
2023-01-19T14:40:21.775Z,4.78
2023-01-19T14:42:57.213Z,6.18
2023-01-19T14:45:28.158Z,5.38
2023-01-19T14:48:18.972Z,6.90
2023-01-19T14:51:01.904Z,7.18
2023-01-19T14:53:33.720Z,7.20
2023-01-19T14:56:02.672Z,5.25
2023-01-19T14:58:31.192Z,6.05
2023-01-19T15:00:58.883Z,6.32
2023-01-19T15:03:42.655Z,5.40
2023-01-19T15:06:16.373Z,7.43
2023-01-19T15:08:44.633Z,5.32
2023-01-19T15:11:24.332Z,7.13
2023-01-19T15:13:52.181Z,10.20
2023-01-19T15:16:20.052Z,4.97
2023-01-19T15:18:47.623Z,7.13
2023-01-19T15:21:19.958Z,5.10
2023-01-19T15:23:47.663Z,6.20
2023-01-19T15:26:19.529Z,9.35
2023-01-19T15:28:49.059Z,5.72
2023-01-19T15:31:17.631Z,7.78
2023-01-19T15:33:45.218Z,9.23
2023-01-19T15:36:17.629Z,9.85
2023-01-19T15:38:45.577Z,5.90
2023-01-19T15:41:31.606Z,9.02
2023-01-19T15:43:59.672Z,7.43
2023-01-19T15:46:27.603Z,9.25
2023-01-19T15:48:55.250Z,9.93
2023-01-19T15:51:25.411Z,6.72
2023-01-19T15:53:53.790Z,8.02
2023-01-19T15:56:23.355Z,7.80
2023-01-19T15:58:51.343Z,9.48
2023-01-19T16:01:21.309Z,7.82
2023-01-19T16:03:49.123Z,7.72
2023-01-19T16:06:17.733Z,6.90
2023-01-19T16:08:45.669Z,10.82
2023-01-19T16:11:14.347Z,7.82
2023-01-19T16:13:45.502Z,14.40
2023-01-19T16:16:15.481Z,7.07
2023-01-19T16:18:43.109Z,7.90
2023-01-19T16:21:10.661Z,10.95
2023-01-19T16:23:38.286Z,8.55
2023-01-19T16:26:10.481Z,8.32
2023-01-19T16:28:38.238Z,7.32
2023-01-19T16:31:05.912Z,9.82
2023-01-19T16:33:33.538Z,11.05
2023-01-19T16:36:17.307Z,9.88
2023-01-19T16:38:44.866Z,6.68
2023-01-19T16:41:12.380Z,10.15
2023-01-19T16:43:40.261Z,8.18
2023-01-19T16:46:07.903Z,9.52
2023-01-19T16:48:35.545Z,7.00
2023-01-19T16:51:04.889Z,9.77
2023-01-19T16:53:34.693Z,12.13
2023-01-19T16:56:06.525Z,7.85
2023-01-19T16:58:34.135Z,8.68
2023-01-19T17:01:06.509Z,14.48
2023-01-19T17:03:34.201Z,17.00
2023-01-19T17:06:01.758Z,6.95
2023-01-19T17:08:29.522Z,7.82
2023-01-19T17:10:57.097Z,6.65
2023-01-19T17:13:39.959Z,7.38
2023-01-19T17:16:07.936Z,9.13
2023-01-19T17:18:36.726Z,9.98
2023-01-19T17:21:05.539Z,7.15
2023-01-19T17:23:33.231Z,8.45
2023-01-19T17:26:00.849Z,7.32
2023-01-19T17:28:28.815Z,8.40
2023-01-19T17:30:56.720Z,9.07
2023-01-19T17:33:25.069Z,10.40
2023-01-19T17:35:52.751Z,9.93
2023-01-19T17:38:20.308Z,8.98
2023-01-19T17:40:47.881Z,7.45
2023-01-19T17:43:15.463Z,10.38
2023-01-19T17:45:43.121Z,8.82
2023-01-19T17:48:10.744Z,8.52
2023-01-19T17:50:38.275Z,9.02
2023-01-19T17:53:05.938Z,12.93
2023-01-19T17:55:34.528Z,7.40
2023-01-19T17:58:02.740Z,7.75
2023-01-19T18:00:30.286Z,7.93
2023-01-19T18:02:57.853Z,7.80
2023-01-19T18:05:25.429Z,9.32
2023-01-19T18:07:52.963Z,9.05
2023-01-19T18:10:20.632Z,11.90
2023-01-19T18:12:48.229Z,9.05
2023-01-19T18:15:17.019Z,9.88
2023-01-19T18:17:44.605Z,11.13
2023-01-19T18:20:12.515Z,9.13
2023-01-19T18:22:40.356Z,12.10
2023-01-19T18:25:08.035Z,11.70
2023-01-19T18:27:35.613Z,12.52
2023-01-19T18:30:03.165Z,12.35
2023-01-19T18:32:30.715Z,11.60
2023-01-19T18:34:58.325Z,10.50
2023-01-19T18:37:25.864Z,9.10
2023-01-19T18:39:54.477Z,11.13
2023-01-19T18:42:22.040Z,8.93
2023-01-19T18:44:49.937Z,9.60
2023-01-19T18:47:17.645Z,9.30
2023-01-19T18:49:46.988Z,8.68
2023-01-19T18:52:14.729Z,9.75
2023-01-19T18:54:42.321Z,8.30
2023-01-19T18:57:09.877Z,7.05
2023-01-19T18:59:37.458Z,8.15
2023-01-19T19:02:06.732Z,9.07
2023-01-19T19:04:34.355Z,9.98
2023-01-19T19:07:01.967Z,8.02
2023-01-19T19:09:29.580Z,8.35
2023-01-19T19:11:57.103Z,9.60
2023-01-19T19:14:24.665Z,9.32
2023-01-19T19:16:52.320Z,9.60
2023-01-19T19:19:20.359Z,10.00
2023-01-19T19:21:48.860Z,10.20
2023-01-19T19:24:16.436Z,11.95
2023-01-19T19:26:43.983Z,12.02
2023-01-19T19:29:12.126Z,12.65
2023-01-19T19:31:40.928Z,9.27
2023-01-19T19:34:09.444Z,14.00
2023-01-19T19:36:37.136Z,16.42
2023-01-19T19:39:04.806Z,10.43
2023-01-19T19:41:32.629Z,9.10
2023-01-19T19:44:00.239Z,12.25
2023-01-19T19:46:27.957Z,10.60
2023-01-19T19:48:55.563Z,9.32
2023-01-19T19:51:23.075Z,10.23
2023-01-19T19:53:51.846Z,8.10
2023-01-19T19:56:21.106Z,11.32
2023-01-19T19:58:49.640Z,12.13
2023-01-19T20:01:18.606Z,13.27
2023-01-19T20:03:46.257Z,9.20
2023-01-19T20:06:15.022Z,11.70
2023-01-19T20:08:42.606Z,10.68
2023-01-19T20:11:12.198Z,9.52
2023-01-19T20:13:40.647Z,7.78
2023-01-19T20:16:12.557Z,11.30
2023-01-19T20:18:42.096Z,13.27
2023-01-19T20:21:17.562Z,11.25
2023-01-19T20:23:45.841Z,8.93
2023-01-19T20:26:14.398Z,11.90
2023-01-19T20:28:42.172Z,12.13
2023-01-19T20:31:18.942Z,11.98
2023-01-19T20:33:47.449Z,8.77
2023-01-19T20:36:15.297Z,10.85
2023-01-19T20:38:44.337Z,9.38
2023-01-19T20:41:12.674Z,8.35
2023-01-19T20:43:40.677Z,9.10
2023-01-19T20:46:08.287Z,9.45
2023-01-19T20:48:36.164Z,11.32
2023-01-19T20:51:07.976Z,10.77
2023-01-19T20:56:06.667Z,9.95
2023-01-19T20:58:34.412Z,9.40
2023-01-19T21:01:09.776Z,7.50
2023-01-19T21:03:37.448Z,7.05
2023-01-19T21:06:05.440Z,9.55
2023-01-19T21:08:33.248Z,8.38
2023-01-19T21:11:00.907Z,8.70
2023-01-19T21:13:28.508Z,12.02
2023-01-19T21:15:56.117Z,8.88
2023-01-19T21:18:24.847Z,12.88
2023-01-19T21:20:52.467Z,9.30
2023-01-19T21:23:20.412Z,10.02
2023-01-19T21:25:54.700Z,9.30
2023-01-19T21:28:22.923Z,9.95
2023-01-19T21:30:51.002Z,128.75
2023-01-19T21:33:19.298Z,166.85
2023-01-19T21:36:04.972Z,45.53
2023-01-19T21:38:32.578Z,10.85
2023-01-19T21:41:05.349Z,9.65
2023-01-19T21:43:32.908Z,8.02
2023-01-19T21:46:08.542Z,7.10
2023-01-19T21:48:36.128Z,8.73
2023-01-19T21:51:03.709Z,9.68
2023-01-19T21:53:31.248Z,8.80
2023-01-19T21:56:00.193Z,8.73
2023-01-19T21:58:28.030Z,9.90
2023-01-19T22:01:02.835Z,10.27
2023-01-19T22:03:30.793Z,8.52
2023-01-19T22:06:03.741Z,9.23
2023-01-19T22:08:31.294Z,11.65
2023-01-19T22:11:05.046Z,8.88
2023-01-19T22:13:33.288Z,7.97
2023-01-19T22:16:02.204Z,9.38
2023-01-19T22:18:29.978Z,8.40
2023-01-19T22:20:57.615Z,10.02
2023-01-19T22:23:25.190Z,9.73
2023-01-19T22:26:09.886Z,13.40
2023-01-19T22:28:46.442Z,10.65
2023-01-19T22:31:17.611Z,9.52
2023-01-19T22:33:45.470Z,10.00
2023-01-19T22:36:17.405Z,8.65
2023-01-19T22:38:45.298Z,11.35
2023-01-19T22:41:13.713Z,8.40
2023-01-19T22:43:41.327Z,9.07
2023-01-19T22:46:09.021Z,9.88
2023-01-19T22:48:36.844Z,9.25
2023-01-19T22:51:04.689Z,7.15
2023-01-19T22:53:32.624Z,7.85
2023-01-19T22:56:00.248Z,9.57
2023-01-19T22:58:27.828Z,9.45
2023-01-19T23:00:55.477Z,9.38
2023-01-19T23:03:23.027Z,7.72
2023-01-19T23:05:50.597Z,10.55
2023-01-19T23:08:18.260Z,7.38
2023-01-19T23:10:45.789Z,8.05
2023-01-19T23:13:13.369Z,10.18
2023-01-19T23:15:40.942Z,7.82
2023-01-19T23:18:08.545Z,8.40
2023-01-19T23:20:36.105Z,6.28
2023-01-19T23:23:03.665Z,7.28
2023-01-19T23:25:31.942Z,8.45
2023-01-19T23:27:59.477Z,8.43
2023-01-19T23:30:27.137Z,9.20
2023-01-19T23:32:54.704Z,9.93
2023-01-19T23:35:22.263Z,12.50
2023-01-19T23:37:50.021Z,8.43
2023-01-19T23:40:17.624Z,8.45
2023-01-19T23:42:45.161Z,8.75
2023-01-19T23:45:13.080Z,6.28
2023-01-19T23:47:43.202Z,7.95
2023-01-19T23:50:11.098Z,7.22
2023-01-19T23:52:38.702Z,8.75
2023-01-19T23:55:07.594Z,9.25
2023-01-19T23:57:35.157Z,6.43
